Time;durP1;ratioP1;P1;durP2;ratioP2;P2;SDS_P1;SDS_P2;PMS_P1;PMS_P2;Temp;Humidity;BMP_temperature;BMP_pressure;BME280_temperature;BME280_humidity;BME280_pressure;Samples;Min_cycle;Max_cycle;Signal;HPM_P1;HPM_P2
2024/02/14 00:01:36;;;;;;;12.93;8.80;;;9.80;95.50;;;;;;4995516;28;20052;-76
2024/02/14 00:04:02;;;;;;;10.25;8.30;;;9.70;95.50;;;;;;4992676;28;20050;-78
2024/02/14 00:06:28;;;;;;;11.18;8.40;;;9.80;95.60;;;;;;4995844;28;20010;-76
2024/02/14 00:08:54;;;;;;;12.82;8.77;;;9.80;95.50;;;;;;4994577;28;20437;-78
2024/02/14 00:11:19;;;;;;;11.35;8.38;;;9.80;95.60;;;;;;4994636;28;20036;-76
2024/02/14 00:13:45;;;;;;;11.73;8.32;;;9.80;95.60;;;;;;4989509;28;20029;-77
2024/02/14 00:16:11;;;;;;;12.60;8.35;;;9.80;95.50;;;;;;4997405;28;20045;-79
2024/02/14 00:18:36;;;;;;;13.13;8.98;;;9.80;95.60;;;;;;4993241;28;20549;-77
2024/02/14 00:21:02;;;;;;;12.85;8.65;;;9.80;95.60;;;;;;4993299;28;20028;-75
2024/02/14 00:23:28;;;;;;;11.65;7.63;;;9.80;95.60;;;;;;4994120;28;20128;-76
2024/02/14 00:25:53;;;;;;;11.48;8.50;;;9.80;95.60;;;;;;4993256;28;20383;-76
2024/02/14 00:28:19;;;;;;;12.23;7.97;;;9.90;95.60;;;;;;4995143;28;20460;-77
2024/02/14 00:30:45;;;;;;;12.63;8.30;;;9.80;95.60;;;;;;4990951;28;20030;-77
2024/02/14 00:33:10;;;;;;;11.77;8.05;;;9.90;95.60;;;;;;4987396;28;20592;-78
2024/02/14 00:35:36;;;;;;;11.48;7.65;;;9.90;95.50;;;;;;4990437;28;20042;-79
2024/02/14 00:38:01;;;;;;;11.32;7.15;;;10.00;95.50;;;;;;4993506;28;20026;-75
2024/02/14 00:40:27;;;;;;;12.10;6.95;;;10.00;95.50;;;;;;4993745;28;20034;-76
2024/02/14 00:42:52;;;;;;;10.25;7.45;;;10.00;95.40;;;;;;5010897;28;20441;-78
2024/02/14 00:45:18;;;;;;;12.27;8.00;;;10.00;95.40;;;;;;4989804;28;20510;-75
2024/02/14 00:47:44;;;;;;;12.10;7.72;;;10.00;95.30;;;;;;4990064;28;20040;-77
2024/02/14 00:50:10;;;;;;;10.88;7.47;;;10.00;95.40;;;;;;4993688;28;20030;-76
2024/02/14 00:52:35;;;;;;;10.68;7.68;;;10.00;95.40;;;;;;4992866;28;20018;-77
2024/02/14 00:55:04;;;;;;;11.10;7.75;;;10.00;95.50;;;;;;4996486;28;20041;-79
2024/02/14 00:57:30;;;;;;;14.00;7.07;;;10.00;95.50;;;;;;4993043;28;20105;-76
2024/02/14 00:59:59;;;;;;;12.48;7.40;;;10.00;95.50;;;;;;4994172;28;20030;-76
2024/02/14 01:02:26;;;;;;;14.50;7.97;;;10.10;95.50;;;;;;4991433;28;20026;-79
2024/02/14 01:04:52;;;;;;;11.98;7.50;;;10.10;95.50;;;;;;4995002;28;20590;-77
2024/02/14 01:07:17;;;;;;;13.52;8.18;;;10.10;95.40;;;;;;4990290;28;20024;-77
2024/02/14 01:09:43;;;;;;;12.13;7.28;;;10.00;95.50;;;;;;4999501;28;20026;-77
2024/02/14 01:12:09;;;;;;;11.65;7.35;;;10.10;95.50;;;;;;4992692;28;20014;-76
2024/02/14 01:14:34;;;;;;;11.43;7.80;;;10.10;95.60;;;;;;5013807;28;20133;-79
2024/02/14 01:17:00;;;;;;;14.27;7.28;;;10.10;95.70;;;;;;5009674;28;20029;-76
2024/02/14 01:19:28;;;;;;;11.50;7.03;;;10.10;95.70;;;;;;4996455;28;20049;-76
2024/02/14 01:21:54;;;;;;;12.30;7.50;;;10.10;95.60;;;;;;4997647;28;20222;-79
2024/02/14 01:24:22;;;;;;;11.98;6.93;;;10.10;95.60;;;;;;4990823;28;20104;-78
2024/02/14 01:26:47;;;;;;;9.65;6.97;;;10.10;95.60;;;;;;4987612;28;20030;-78
2024/02/14 01:29:13;;;;;;;10.32;6.72;;;10.10;95.60;;;;;;4995672;28;20030;-78
2024/02/14 01:31:38;;;;;;;9.70;7.18;;;10.10;95.60;;;;;;4996071;28;20348;-75
2024/02/14 01:34:04;;;;;;;13.85;8.40;;;10.10;95.70;;;;;;4995758;28;20038;-77
2024/02/14 01:36:30;;;;;;;11.57;7.78;;;10.10;95.70;;;;;;4995557;28;20038;-77
2024/02/14 01:38:56;;;;;;;11.07;7.38;;;10.10;95.70;;;;;;4996759;28;20097;-77
2024/02/14 01:41:22;;;;;;;11.85;7.63;;;10.10;95.70;;;;;;4998385;28;20390;-77
2024/02/14 01:43:47;;;;;;;10.23;7.25;;;10.20;95.80;;;;;;4993237;28;20038;-77
2024/02/14 01:46:13;;;;;;;12.77;6.63;;;10.20;95.80;;;;;;4993441;28;20040;-79
2024/02/14 01:48:41;;;;;;;11.57;7.45;;;10.10;95.80;;;;;;5011370;28;20550;-78
2024/02/14 01:51:10;;;;;;;13.25;7.70;;;10.20;95.70;;;;;;4994444;28;20022;-77
2024/02/14 01:53:37;;;;;;;12.77;7.30;;;10.20;95.60;;;;;;4994478;28;20521;-74
2024/02/14 01:56:04;;;;;;;11.88;7.15;;;10.10;95.60;;;;;;4996758;28;20033;-77
2024/02/14 01:58:30;;;;;;;10.43;6.97;;;10.20;95.80;;;;;;5013968;28;20018;-74
2024/02/14 02:00:58;;;;;;;10.23;7.28;;;10.20;95.80;;;;;;4996521;28;20399;-75
2024/02/14 02:03:25;;;;;;;10.95;7.45;;;10.20;96.00;;;;;;4995674;28;20181;-79
2024/02/14 02:05:53;;;;;;;13.77;8.30;;;10.30;96.00;;;;;;4992275;28;20034;-73
2024/02/14 02:08:19;;;;;;;11.00;8.23;;;10.20;96.20;;;;;;4997773;28;20118;-78
2024/02/14 02:10:45;;;;;;;12.57;8.27;;;10.20;96.30;;;;;;4994758;28;20046;-78
2024/02/14 02:13:11;;;;;;;10.73;7.45;;;10.20;96.40;;;;;;4990088;28;20502;-78
2024/02/14 02:15:37;;;;;;;11.15;7.43;;;10.20;96.50;;;;;;4995591;28;20036;-77
2024/02/14 02:18:05;;;;;;;13.57;8.32;;;10.20;96.50;;;;;;4996372;28;20095;-78
2024/02/14 02:20:32;;;;;;;11.93;8.40;;;10.20;96.60;;;;;;4995143;28;20121;-76
2024/02/14 02:22:58;;;;;;;12.80;8.15;;;10.20;96.60;;;;;;4990662;28;20037;-77
2024/02/14 02:25:24;;;;;;;12.23;7.63;;;10.20;96.60;;;;;;4992369;28;20478;-77
2024/02/14 02:27:50;;;;;;;11.38;7.40;;;10.20;96.60;;;;;;4998614;28;20036;-76
2024/02/14 02:30:16;;;;;;;12.63;8.15;;;10.20;96.70;;;;;;4973562;28;20227;-78
2024/02/14 02:32:42;;;;;;;13.10;7.80;;;10.20;96.80;;;;;;5003910;28;20021;-76
2024/02/14 02:35:09;;;;;;;13.23;8.27;;;10.20;96.80;;;;;;4999980;28;20037;-77
2024/02/14 02:37:35;;;;;;;13.57;8.60;;;10.30;96.90;;;;;;4998326;28;20029;-77
2024/02/14 02:40:01;;;;;;;12.98;8.63;;;10.20;97.00;;;;;;5014579;28;20025;-76
2024/02/14 02:42:27;;;;;;;12.45;8.65;;;10.20;97.10;;;;;;4987430;28;20113;-78
2024/02/14 02:44:53;;;;;;;13.95;8.90;;;10.20;97.20;;;;;;4996438;28;20246;-79
2024/02/14 02:47:18;;;;;;;12.07;8.30;;;10.30;97.20;;;;;;4995267;28;20028;-76
2024/02/14 02:49:44;;;;;;;13.50;8.43;;;10.20;97.20;;;;;;4996244;28;20222;-76
2024/02/14 02:52:13;;;;;;;14.68;9.10;;;10.30;97.20;;;;;;4998032;28;20175;-78
2024/02/14 02:54:43;;;;;;;13.57;8.38;;;10.20;97.10;;;;;;4989114;28;20176;-77
2024/02/14 02:57:10;;;;;;;11.63;8.02;;;10.30;97.10;;;;;;4992259;28;20105;-79
2024/02/14 02:59:36;;;;;;;14.60;8.05;;;10.30;97.10;;;;;;4993309;28;20030;-77
2024/02/14 03:02:03;;;;;;;12.43;9.02;;;10.30;97.00;;;;;;4997375;28;20029;-77
2024/02/14 03:04:31;;;;;;;11.40;7.93;;;10.30;97.00;;;;;;4994929;28;20030;-74
2024/02/14 03:06:56;;;;;;;12.50;9.00;;;10.30;96.90;;;;;;4998444;28;20022;-77
2024/02/14 03:09:22;;;;;;;13.05;8.57;;;10.30;96.90;;;;;;4993576;28;20801;-79
2024/02/14 03:11:48;;;;;;;12.73;8.82;;;10.30;96.90;;;;;;4999239;28;20376;-78
2024/02/14 03:14:14;;;;;;;13.50;8.15;;;10.30;96.90;;;;;;4999311;28;20064;-78
2024/02/14 03:16:40;;;;;;;13.10;8.20;;;10.30;96.90;;;;;;4996854;28;20141;-77
2024/02/14 03:19:06;;;;;;;14.07;8.90;;;10.40;97.00;;;;;;4997120;28;20034;-77
2024/02/14 03:21:32;;;;;;;11.77;8.52;;;10.40;97.00;;;;;;4996826;28;20029;-76
2024/02/14 03:23:58;;;;;;;12.75;8.18;;;10.40;97.10;;;;;;4996495;28;20047;-77
2024/02/14 03:26:24;;;;;;;12.10;8.75;;;10.40;97.00;;;;;;4996047;28;20030;-77
2024/02/14 03:28:50;;;;;;;13.30;8.95;;;10.40;97.10;;;;;;4995213;28;20032;-75
2024/02/14 03:31:16;;;;;;;13.82;9.20;;;10.40;97.10;;;;;;4991608;28;20021;-78
2024/02/14 03:33:42;;;;;;;15.00;9.23;;;10.40;97.00;;;;;;4992624;28;20041;-76
2024/02/14 03:36:09;;;;;;;12.55;8.50;;;10.40;97.10;;;;;;4999399;28;20149;-77
2024/02/14 03:38:34;;;;;;;12.55;8.93;;;10.40;97.10;;;;;;4994152;28;20362;-78
2024/02/14 03:41:00;;;;;;;13.20;8.85;;;10.40;97.00;;;;;;4997835;28;20024;-75
2024/02/14 03:43:27;;;;;;;12.50;8.57;;;10.40;97.10;;;;;;4994587;28;20141;-77
2024/02/14 03:45:54;;;;;;;14.00;9.30;;;10.50;97.10;;;;;;4995829;28;20034;-77
2024/02/14 03:48:20;;;;;;;11.20;8.48;;;10.40;97.10;;;;;;4996633;28;20032;-78
2024/02/14 03:50:46;;;;;;;12.45;9.10;;;10.40;97.10;;;;;;4994783;28;20110;-75
2024/02/14 03:53:11;;;;;;;12.77;8.73;;;10.40;97.20;;;;;;4994937;28;20053;-76
2024/02/14 03:55:37;;;;;;;15.63;9.48;;;10.40;97.20;;;;;;4992563;28;20091;-78
2024/02/14 03:58:05;;;;;;;14.45;9.65;;;10.50;97.20;;;;;;4997047;28;20557;-78
2024/02/14 04:00:31;;;;;;;13.32;8.88;;;10.50;97.20;;;;;;4992685;28;20042;-76
2024/02/14 04:03:00;;;;;;;13.68;9.35;;;10.50;97.20;;;;;;4993869;28;20896;-76
2024/02/14 04:05:29;;;;;;;14.07;8.98;;;10.50;97.30;;;;;;4995355;28;20025;-78
2024/02/14 04:07:55;;;;;;;16.13;10.38;;;10.50;97.30;;;;;;4996451;28;20014;-78
2024/02/14 04:10:21;;;;;;;15.40;9.15;;;10.50;97.30;;;;;;4993959;28;20068;-78
2024/02/14 04:12:47;;;;;;;13.50;8.77;;;10.50;97.30;;;;;;4990525;28;20026;-78
2024/02/14 04:15:13;;;;;;;13.90;8.95;;;10.50;97.40;;;;;;4997659;28;20046;-79
2024/02/14 04:17:42;;;;;;;14.23;9.50;;;10.50;97.40;;;;;;4993056;28;20046;-78
2024/02/14 04:20:08;;;;;;;12.32;8.68;;;10.50;97.40;;;;;;4990964;28;20465;-77
2024/02/14 04:22:34;;;;;;;12.10;8.65;;;10.50;97.40;;;;;;4997494;28;20026;-77
2024/02/14 04:24:59;;;;;;;14.00;8.82;;;10.60;97.40;;;;;;4995402;28;20505;-78
2024/02/14 04:27:25;;;;;;;13.48;9.40;;;10.60;97.30;;;;;;4994150;28;20029;-76
2024/02/14 04:29:51;;;;;;;16.92;10.00;;;10.50;97.30;;;;;;4999346;28;20448;-75
2024/02/14 04:32:17;;;;;;;13.95;9.05;;;10.60;97.30;;;;;;4995008;28;20026;-75
2024/02/14 04:34:43;;;;;;;12.98;8.90;;;10.60;97.30;;;;;;4998956;28;20565;-76
2024/02/14 04:37:13;;;;;;;14.70;9.07;;;10.60;97.20;;;;;;4994379;28;20065;-74
2024/02/14 04:39:39;;;;;;;15.05;8.45;;;10.60;97.20;;;;;;4993177;28;20026;-75
2024/02/14 04:42:05;;;;;;;15.00;8.90;;;10.60;97.10;;;;;;4996148;28;20029;-77
2024/02/14 04:44:32;;;;;;;12.30;8.98;;;10.60;97.00;;;;;;4992860;28;20049;-77
2024/02/14 04:46:58;;;;;;;13.85;8.90;;;10.60;97.10;;;;;;4991371;28;20033;-77
2024/02/14 04:49:24;;;;;;;11.75;9.35;;;10.60;97.10;;;;;;4996898;28;20030;-77
2024/02/14 04:51:51;;;;;;;12.55;8.70;;;10.60;97.10;;;;;;4989501;28;20473;-75
2024/02/14 04:54:17;;;;;;;14.48;9.02;;;10.60;97.10;;;;;;4999503;28;20523;-77
2024/02/14 04:56:42;;;;;;;16.70;9.43;;;10.60;97.10;;;;;;5001409;28;20169;-75
2024/02/14 04:59:08;;;;;;;15.48;8.98;;;10.60;97.10;;;;;;4999063;28;20064;-76
2024/02/14 05:01:34;;;;;;;15.40;9.02;;;10.60;97.10;;;;;;4996991;28;20091;-75
2024/02/14 05:04:00;;;;;;;14.43;9.80;;;10.60;97.10;;;;;;4970128;28;20395;-74
2024/02/14 05:06:26;;;;;;;14.77;9.68;;;10.60;97.00;;;;;;5002467;28;20113;-74
2024/02/14 05:08:51;;;;;;;16.10;9.40;;;10.60;96.90;;;;;;4995260;28;20379;-77
2024/02/14 05:11:18;;;;;;;14.98;9.68;;;10.60;96.90;;;;;;4997175;28;20120;-79
2024/02/14 05:13:44;;;;;;;13.95;9.13;;;10.60;97.00;;;;;;4996088;28;20096;-79
2024/02/14 05:16:10;;;;;;;13.63;9.23;;;10.60;97.00;;;;;;4992313;28;20463;-77
2024/02/14 05:18:39;;;;;;;13.45;8.52;;;10.60;97.00;;;;;;4991568;28;20332;-78
2024/02/14 05:21:07;;;;;;;12.57;9.02;;;10.60;96.90;;;;;;4993413;28;20068;-75
2024/02/14 05:23:32;;;;;;;15.60;8.70;;;10.60;96.80;;;;;;4994415;28;20041;-77
2024/02/14 05:25:58;;;;;;;15.48;9.35;;;10.70;96.80;;;;;;4994235;28;20026;-77
2024/02/14 05:28:24;;;;;;;12.18;8.73;;;10.70;96.80;;;;;;4998876;28;20034;-79
2024/02/14 05:30:49;;;;;;;12.25;7.93;;;10.60;96.70;;;;;;4995715;28;20084;-76
2024/02/14 05:33:15;;;;;;;14.18;8.60;;;10.70;96.80;;;;;;4997610;28;20036;-78
2024/02/14 05:35:40;;;;;;;12.18;8.30;;;10.70;96.70;;;;;;4996759;28;20495;-76
2024/02/14 05:38:07;;;;;;;11.93;7.78;;;10.70;96.70;;;;;;4997813;28;20466;-77
2024/02/14 05:40:33;;;;;;;16.48;8.45;;;10.80;96.70;;;;;;5013115;28;20033;-78
2024/02/14 05:42:59;;;;;;;15.05;9.05;;;10.80;96.60;;;;;;4990803;28;20025;-76
2024/02/14 05:45:25;;;;;;;12.65;8.43;;;10.80;96.50;;;;;;4994504;28;20111;-75
2024/02/14 05:47:51;;;;;;;12.90;8.35;;;10.80;96.60;;;;;;4998417;28;20087;-76
2024/02/14 05:50:17;;;;;;;12.43;8.13;;;10.80;96.60;;;;;;4996994;28;20864;-76
2024/02/14 05:52:42;;;;;;;12.93;8.38;;;10.80;96.50;;;;;;4999291;28;20025;-77
2024/02/14 05:55:09;;;;;;;11.85;7.88;;;10.80;96.50;;;;;;4994871;28;20105;-77
2024/02/14 05:57:35;;;;;;;14.43;8.23;;;10.90;96.50;;;;;;4996943;28;20022;-77
2024/02/14 06:00:00;;;;;;;15.98;8.50;;;10.90;96.50;;;;;;4998781;28;21017;-77
2024/02/14 06:02:26;;;;;;;12.98;8.18;;;10.80;96.40;;;;;;4996916;28;20022;-77
2024/02/14 06:04:52;;;;;;;17.48;9.00;;;10.90;96.50;;;;;;5000334;28;20056;-77
2024/02/14 06:07:17;;;;;;;11.10;7.80;;;10.90;96.50;;;;;;5002395;28;20045;-77
2024/02/14 06:09:43;;;;;;;14.93;7.95;;;10.80;96.60;;;;;;5001513;28;20072;-79
2024/02/14 06:12:09;;;;;;;11.40;8.25;;;10.90;96.60;;;;;;4999635;28;20478;-76
2024/02/14 06:14:36;;;;;;;13.38;7.55;;;10.80;96.70;;;;;;5000166;28;20429;-77
2024/02/14 06:17:01;;;;;;;13.68;9.00;;;10.90;96.70;;;;;;4996808;28;20113;-76
2024/02/14 06:19:28;;;;;;;15.90;8.27;;;10.90;96.80;;;;;;4998601;28;20537;-76
2024/02/14 06:21:53;;;;;;;12.55;8.07;;;10.80;96.70;;;;;;5000292;28;20733;-77
2024/02/14 06:24:19;;;;;;;15.32;9.15;;;10.90;96.80;;;;;;4998785;28;20333;-75
2024/02/14 06:26:45;;;;;;;13.75;8.75;;;10.90;96.80;;;;;;4995649;28;20068;-76
2024/02/14 06:29:11;;;;;;;17.52;8.95;;;10.90;96.70;;;;;;4999171;28;20439;-76
2024/02/14 06:31:37;;;;;;;13.68;7.78;;;10.90;96.70;;;;;;4997695;28;20038;-77
2024/02/14 06:34:03;;;;;;;16.88;8.40;;;10.90;96.70;;;;;;4997364;28;20030;-77
2024/02/14 06:36:28;;;;;;;15.23;8.70;;;10.90;96.60;;;;;;5002437;28;20053;-75
2024/02/14 06:38:54;;;;;;;14.77;8.32;;;10.90;96.60;;;;;;4995267;28;20084;-77
2024/02/14 06:41:20;;;;;;;12.40;7.95;;;10.90;96.60;;;;;;5000523;28;20030;-77
2024/02/14 06:43:46;;;;;;;15.40;8.75;;;10.90;96.50;;;;;;4998540;28;20088;-77
2024/02/14 06:46:11;;;;;;;14.98;8.18;;;10.90;96.60;;;;;;4998853;28;20109;-76
2024/02/14 06:48:37;;;;;;;14.85;8.48;;;11.00;96.60;;;;;;4995333;28;20125;-76
2024/02/14 06:51:03;;;;;;;11.90;7.55;;;10.90;96.60;;;;;;5002095;28;20014;-75
2024/02/14 06:53:28;;;;;;;15.55;8.52;;;11.00;96.60;;;;;;4996514;28;20093;-74
2024/02/14 06:55:54;;;;;;;12.20;8.75;;;11.00;96.60;;;;;;5001175;28;20543;-75
2024/02/14 06:58:20;;;;;;;14.23;8.73;;;11.00;96.60;;;;;;4997736;28;20152;-75
2024/02/14 07:00:45;;;;;;;14.35;7.95;;;11.00;96.60;;;;;;4999569;28;20096;-75
2024/02/14 07:03:11;;;;;;;12.43;8.57;;;11.00;96.50;;;;;;4998011;28;20030;-78
2024/02/14 07:05:36;;;;;;;13.95;9.15;;;10.90;96.50;;;;;;4995470;28;20037;-76
2024/02/14 07:08:02;;;;;;;17.50;9.23;;;11.00;96.60;;;;;;4999319;28;20026;-75
2024/02/14 07:10:28;;;;;;;15.98;8.85;;;11.00;96.70;;;;;;4992908;28;20459;-77
2024/02/14 07:12:54;;;;;;;15.48;8.27;;;11.00;96.60;;;;;;4999838;28;20646;-77
2024/02/14 07:15:20;;;;;;;14.20;9.40;;;11.00;96.70;;;;;;4997654;28;20092;-75
2024/02/14 07:17:45;;;;;;;14.77;8.70;;;11.00;96.70;;;;;;5002379;28;20025;-76
2024/02/14 07:20:11;;;;;;;16.50;8.93;;;11.00;96.70;;;;;;4997455;28;20080;-76
2024/02/14 07:22:36;;;;;;;13.85;8.40;;;11.10;96.70;;;;;;4993845;28;20773;-76
2024/02/14 07:25:04;;;;;;;16.35;8.90;;;11.10;96.70;;;;;;5001494;28;20497;-76
2024/02/14 07:27:30;;;;;;;16.08;8.40;;;11.00;96.70;;;;;;4999045;28;20026;-76
2024/02/14 07:29:56;;;;;;;16.30;9.38;;;11.10;96.70;;;;;;4995698;28;20042;-77
2024/02/14 07:32:21;;;;;;;14.93;8.95;;;11.10;96.70;;;;;;4993701;28;20031;-77
2024/02/14 07:34:47;;;;;;;11.85;8.60;;;11.10;96.80;;;;;;4998389;28;20038;-76
2024/02/14 07:37:14;;;;;;;17.30;8.60;;;11.10;96.70;;;;;;4999088;28;20038;-80
2024/02/14 07:39:41;;;;;;;14.77;9.38;;;11.10;96.80;;;;;;5002625;28;20032;-77
2024/02/14 07:42:06;;;;;;;15.23;8.95;;;11.10;96.90;;;;;;4995444;28;20340;-76
2024/02/14 07:44:32;;;;;;;14.52;8.93;;;11.20;96.90;;;;;;5002866;28;20581;-75
2024/02/14 07:46:58;;;;;;;16.77;8.85;;;11.10;97.00;;;;;;4998853;28;20026;-76
2024/02/14 07:49:23;;;;;;;14.43;8.85;;;11.10;97.00;;;;;;4992897;28;20045;-77
2024/02/14 07:51:49;;;;;;;17.13;9.38;;;11.10;97.10;;;;;;4997165;28;20474;-77
2024/02/14 07:54:15;;;;;;;17.00;10.43;;;11.20;97.20;;;;;;5000332;28;20034;-79
2024/02/14 07:56:40;;;;;;;17.25;9.60;;;11.20;97.30;;;;;;4998623;28;20665;-74
2024/02/14 07:59:06;;;;;;;14.73;9.73;;;11.10;97.30;;;;;;5000366;28;20498;-77
2024/02/14 08:01:32;;;;;;;17.35;9.57;;;11.10;97.30;;;;;;4999051;28;20396;-76
2024/02/14 08:03:58;;;;;;;17.20;10.40;;;11.20;97.30;;;;;;4996643;28;20046;-76
2024/02/14 08:06:24;;;;;;;15.82;9.45;;;11.20;97.30;;;;;;4994081;28;20040;-74
2024/02/14 08:08:53;;;;;;;16.73;9.43;;;11.20;97.20;;;;;;4997454;28;20026;-77
2024/02/14 08:11:20;;;;;;;17.17;9.63;;;11.20;97.20;;;;;;5000138;28;20467;-77
2024/02/14 08:13:45;;;;;;;13.98;8.75;;;11.30;97.10;;;;;;4996235;28;20124;-75
2024/02/14 08:16:12;;;;;;;15.20;9.85;;;11.20;97.00;;;;;;4997281;28;20347;-76
2024/02/14 08:18:39;;;;;;;15.85;9.48;;;11.30;97.00;;;;;;4993433;28;20030;-74
2024/02/14 08:21:06;;;;;;;15.63;8.70;;;11.40;97.00;;;;;;5002527;28;20025;-77
2024/02/14 08:23:34;;;;;;;15.57;9.52;;;11.40;96.90;;;;;;4991577;28;20463;-76
2024/02/14 08:26:00;;;;;;;15.52;8.80;;;11.40;96.90;;;;;;4997749;28;20188;-75
2024/02/14 08:28:25;;;;;;;15.63;10.02;;;11.40;96.80;;;;;;4997988;28;20026;-75
2024/02/14 08:30:51;;;;;;;13.80;8.82;;;11.40;96.80;;;;;;4995136;28;20414;-76
2024/02/14 08:33:17;;;;;;;15.48;9.02;;;11.50;96.90;;;;;;4995571;28;20026;-76
2024/02/14 08:35:42;;;;;;;14.05;9.43;;;11.40;96.80;;;;;;4996581;28;20171;-74
2024/02/14 08:38:08;;;;;;;13.07;8.73;;;11.50;96.80;;;;;;5006341;28;20029;-76
2024/02/14 08:40:34;;;;;;;14.98;9.45;;;11.50;96.70;;;;;;4996696;28;20069;-72
2024/02/14 08:42:59;;;;;;;14.38;9.30;;;11.50;96.70;;;;;;4994198;28;20033;-73
2024/02/14 08:45:28;;;;;;;12.45;8.82;;;11.50;96.70;;;;;;4996247;28;20437;-72
2024/02/14 08:47:54;;;;;;;15.25;8.95;;;11.60;96.70;;;;;;4994808;28;20425;-72
2024/02/14 08:50:20;;;;;;;13.43;8.18;;;11.60;96.60;;;;;;4997403;28;20048;-72
2024/02/14 08:52:45;;;;;;;18.00;9.07;;;11.60;96.70;;;;;;4993793;28;20018;-72
2024/02/14 08:55:17;;;;;;;15.60;9.20;;;11.60;96.80;;;;;;4995174;28;20339;-73
2024/02/14 08:57:43;;;;;;;14.18;8.25;;;11.60;96.70;;;;;;4995576;28;20072;-74
2024/02/14 09:00:10;;;;;;;13.23;8.52;;;11.60;96.80;;;;;;4993407;28;20037;-72
2024/02/14 09:02:36;;;;;;;14.27;9.40;;;11.60;96.90;;;;;;4993072;28;20027;-73
2024/02/14 09:05:05;;;;;;;13.75;8.73;;;11.60;97.00;;;;;;4994220;28;20506;-72
2024/02/14 09:07:32;;;;;;;14.20;9.02;;;11.60;97.10;;;;;;4993930;28;20080;-73
2024/02/14 09:09:58;;;;;;;12.60;9.45;;;11.60;97.20;;;;;;4995205;28;20103;-73
2024/02/14 09:12:23;;;;;;;12.55;9.30;;;11.60;97.40;;;;;;4995147;28;20358;-73
2024/02/14 09:14:49;;;;;;;14.40;9.30;;;11.60;97.40;;;;;;4992773;28;20686;-74
2024/02/14 09:17:15;;;;;;;15.35;8.73;;;11.60;97.50;;;;;;4990228;28;20022;-74
2024/02/14 09:19:40;;;;;;;16.13;8.80;;;11.60;97.60;;;;;;4996286;28;20332;-73
2024/02/14 09:22:06;;;;;;;12.25;8.48;;;11.60;97.80;;;;;;4986880;28;20044;-73
2024/02/14 09:24:32;;;;;;;13.32;8.98;;;11.70;97.80;;;;;;4988945;28;20065;-73
2024/02/14 09:26:58;;;;;;;13.00;8.75;;;11.70;97.80;;;;;;4991762;28;20089;-73
2024/02/14 09:29:24;;;;;;;13.93;8.52;;;11.70;97.90;;;;;;4989177;28;20495;-73
2024/02/14 09:31:51;;;;;;;13.02;9.73;;;11.70;97.90;;;;;;4991941;28;20029;-72
2024/02/14 09:34:19;;;;;;;12.75;8.43;;;11.70;98.00;;;;;;4997170;28;20462;-73
2024/02/14 09:36:47;;;;;;;13.48;9.68;;;11.80;98.10;;;;;;4990972;28;20081;-71
2024/02/14 09:39:17;;;;;;;12.27;9.10;;;11.80;98.20;;;;;;4985981;28;20038;-73
2024/02/14 09:41:46;;;;;;;11.02;8.73;;;11.70;98.10;;;;;;4996711;28;20125;-71
2024/02/14 09:44:12;;;;;;;13.18;8.88;;;11.80;98.20;;;;;;4995780;28;20128;-72
2024/02/14 09:46:38;;;;;;;13.10;9.02;;;11.70;98.30;;;;;;4995815;28;20525;-71
2024/02/14 09:49:06;;;;;;;13.55;7.97;;;11.80;98.30;;;;;;4993988;28;20038;-71
2024/02/14 09:51:32;;;;;;;10.98;7.88;;;11.80;98.30;;;;;;4990664;28;20027;-71
2024/02/14 09:54:01;;;;;;;9.98;7.28;;;11.80;98.30;;;;;;4994384;28;20171;-74
2024/02/14 09:56:27;;;;;;;11.13;8.18;;;11.90;98.40;;;;;;4992450;28;20033;-71
2024/02/14 09:58:56;;;;;;;12.02;8.00;;;11.80;98.30;;;;;;4990008;28;20140;-71
2024/02/14 10:01:26;;;;;;;12.98;8.60;;;11.90;98.40;;;;;;4995424;28;20057;-70
2024/02/14 10:03:53;;;;;;;12.60;8.05;;;11.90;98.40;;;;;;4995562;28;20069;-70
2024/02/14 10:06:20;;;;;;;13.35;8.80;;;11.90;98.40;;;;;;4992819;28;20360;-70
2024/02/14 10:08:50;;;;;;;11.45;7.78;;;11.90;98.40;;;;;;4991438;28;20014;-73
2024/02/14 10:11:23;;;;;;;12.25;9.18;;;12.00;98.40;;;;;;4992852;28;20022;-73
2024/02/14 10:13:50;;;;;;;10.52;7.95;;;12.00;98.40;;;;;;4988119;28;20053;-70
2024/02/14 10:16:16;;;;;;;14.63;8.68;;;12.10;98.40;;;;;;4994890;28;20014;-71
2024/02/14 10:18:41;;;;;;;11.93;7.72;;;12.10;98.30;;;;;;4995073;28;20080;-74
2024/02/14 10:21:14;;;;;;;10.65;7.28;;;12.10;98.40;;;;;;4990493;28;20035;-72
2024/02/14 10:23:40;;;;;;;13.70;8.25;;;12.10;98.30;;;;;;4993383;28;20030;-73
2024/02/14 10:26:06;;;;;;;11.43;7.78;;;12.10;98.30;;;;;;4997703;28;20076;-73
2024/02/14 10:28:33;;;;;;;10.85;8.02;;;12.20;98.30;;;;;;4995200;28;20030;-73
2024/02/14 10:30:59;;;;;;;14.38;7.15;;;12.20;98.20;;;;;;4993715;28;20092;-71
2024/02/14 10:33:29;;;;;;;9.98;7.45;;;12.10;98.10;;;;;;4996203;28;20379;-72
2024/02/14 10:35:56;;;;;;;11.73;7.63;;;12.20;98.10;;;;;;4989777;28;20050;-71
2024/02/14 10:38:24;;;;;;;11.00;7.97;;;12.20;98.20;;;;;;4992005;28;20037;-72
2024/02/14 10:40:51;;;;;;;12.52;8.38;;;12.20;98.20;;;;;;4993390;28;20105;-71
2024/02/14 10:43:17;;;;;;;10.48;7.97;;;12.30;98.20;;;;;;4997999;28;20107;-71
2024/02/14 10:45:43;;;;;;;12.00;8.20;;;12.30;98.20;;;;;;4991257;28;20120;-71
2024/02/14 10:48:13;;;;;;;11.48;8.27;;;12.40;98.10;;;;;;4993702;28;20102;-71
2024/02/14 10:50:44;;;;;;;12.95;8.30;;;12.30;98.10;;;;;;4994410;28;20084;-70
2024/02/14 10:53:17;;;;;;;13.38;8.30;;;12.40;98.10;;;;;;4989870;28;20018;-71
2024/02/14 10:55:47;;;;;;;15.65;7.65;;;12.40;98.00;;;;;;4989691;28;20040;-70
2024/02/14 10:58:14;;;;;;;12.50;8.35;;;12.40;98.00;;;;;;4990304;28;20056;-71
2024/02/14 11:00:41;;;;;;;11.82;8.38;;;12.50;97.90;;;;;;4994475;28;20100;-70
2024/02/14 11:03:07;;;;;;;11.25;8.07;;;12.50;97.90;;;;;;5005203;28;20113;-70
2024/02/14 11:05:45;;;;;;;13.38;8.50;;;12.60;97.80;;;;;;5000926;28;20096;-70
2024/02/14 11:08:18;;;;;;;13.30;8.45;;;12.60;97.80;;;;;;5014870;28;20112;-72
2024/02/14 11:10:54;;;;;;;11.80;8.60;;;12.60;97.70;;;;;;4996147;28;20036;-70
2024/02/14 11:13:21;;;;;;;12.38;7.60;;;12.70;97.70;;;;;;4994567;28;20281;-71
2024/02/14 11:15:47;;;;;;;11.85;8.35;;;12.70;97.60;;;;;;5001937;28;20038;-70
2024/02/14 11:18:12;;;;;;;12.07;7.85;;;12.70;97.50;;;;;;5002511;28;20028;-71
2024/02/14 11:20:40;;;;;;;13.07;8.73;;;12.80;97.40;;;;;;4996347;28;20053;-71
2024/02/14 11:23:10;;;;;;;14.95;8.23;;;12.80;97.30;;;;;;5001141;28;20268;-70
2024/02/14 11:25:37;;;;;;;12.70;8.15;;;12.80;97.10;;;;;;4989924;28;20045;-70
2024/02/14 11:28:25;;;;;;;14.43;8.60;;;12.90;97.10;;;;;;4991555;28;20382;-71
2024/02/14 11:30:51;;;;;;;11.52;8.30;;;13.00;97.00;;;;;;4988009;28;20621;-70
2024/02/14 11:33:24;;;;;;;11.75;7.40;;;13.00;96.90;;;;;;4994401;28;20038;-70
2024/02/14 11:35:52;;;;;;;13.40;7.30;;;13.00;96.80;;;;;;4995442;28;20080;-70
2024/02/14 11:38:19;;;;;;;13.43;7.30;;;13.10;96.80;;;;;;4991162;28;20133;-70
2024/02/14 11:40:45;;;;;;;11.90;7.18;;;13.10;96.80;;;;;;4977856;28;20030;-72
2024/02/14 11:43:19;;;;;;;15.52;7.32;;;13.10;96.70;;;;;;4974651;28;20027;-71
2024/02/14 11:45:46;;;;;;;13.73;7.13;;;13.10;96.50;;;;;;4972838;28;20128;-70
2024/02/14 11:48:13;;;;;;;10.98;7.32;;;13.10;96.60;;;;;;4987247;28;21034;-71
2024/02/14 11:50:40;;;;;;;10.65;6.40;;;13.10;96.60;;;;;;4987601;28;20030;-70
2024/02/14 11:53:09;;;;;;;11.60;7.50;;;13.10;96.60;;;;;;4997304;28;20554;-71
2024/02/14 11:55:37;;;;;;;12.50;7.40;;;13.20;96.60;;;;;;4995479;28;20365;-70
2024/02/14 11:58:10;;;;;;;11.75;7.35;;;13.20;96.50;;;;;;4988540;28;20377;-71
2024/02/14 12:00:46;;;;;;;11.43;7.32;;;13.20;96.50;;;;;;4995712;28;20045;-71
2024/02/14 12:03:22;;;;;;;13.30;7.35;;;13.30;96.50;;;;;;4993778;28;20022;-70
2024/02/14 12:05:50;;;;;;;11.73;6.70;;;13.30;96.50;;;;;;4993058;28;20022;-71
2024/02/14 12:08:16;;;;;;;13.68;6.85;;;13.30;96.50;;;;;;4996890;28;20026;-69
2024/02/14 12:10:52;;;;;;;14.98;6.90;;;13.30;96.60;;;;;;4975493;28;21101;-71
2024/02/14 12:13:23;;;;;;;14.80;6.95;;;13.30;96.70;;;;;;4971597;28;20030;-70
2024/02/14 12:15:50;;;;;;;12.13;6.68;;;13.30;96.60;;;;;;4989131;28;20030;-71
2024/02/14 12:18:20;;;;;;;13.10;6.03;;;13.30;96.60;;;;;;4989604;28;20035;-73
2024/02/14 12:20:49;;;;;;;12.93;6.20;;;13.20;96.70;;;;;;4975874;28;20046;-72
2024/02/14 12:23:18;;;;;;;11.98;6.07;;;13.20;96.90;;;;;;4973171;28;20100;-73
2024/02/14 12:25:48;;;;;;;13.45;6.55;;;13.20;97.00;;;;;;4972694;28;20108;-72
2024/02/14 12:28:17;;;;;;;10.77;6.78;;;13.20;97.00;;;;;;4975841;28;20019;-73
2024/02/14 12:30:55;;;;;;;12.75;6.40;;;13.10;97.10;;;;;;4987256;28;20106;-73
2024/02/14 12:33:23;;;;;;;10.88;6.93;;;13.10;97.30;;;;;;4994873;28;20506;-73
2024/02/14 12:35:50;;;;;;;11.07;7.50;;;13.10;97.40;;;;;;4994217;28;20227;-72